Time;durP1;ratioP1;P1;durP2;ratioP2;P2;SDS_P1;SDS_P2;PMS_P1;PMS_P2;Temp;Humidity;BMP_temperature;BMP_pressure;BME280_temperature;BME280_humidity;BME280_pressure;Samples;Min_cycle;Max_cycle;Signal;HPM_P1;HPM_P2
2021/10/19 00:01:17;;;;;;;7.55;5.10;;;13.80;99.90;;;;;;5032582;28;20554;-87
2021/10/19 00:03:43;;;;;;;8.10;5.82;;;13.90;99.90;;;;;;5032531;28;20462;-88
2021/10/19 00:06:10;;;;;;;5.70;4.65;;;13.90;99.90;;;;;;5028203;28;20079;-87
2021/10/19 00:08:36;;;;;;;6.05;4.75;;;13.90;99.90;;;;;;5021227;28;20084;-88
2021/10/19 00:11:02;;;;;;;5.32;4.15;;;14.00;99.90;;;;;;5031129;28;20128;-87
2021/10/19 00:13:28;;;;;;;11.52;5.47;;;14.00;99.90;;;;;;5031305;28;20068;-87
2021/10/19 00:15:54;;;;;;;7.05;4.80;;;14.00;99.90;;;;;;5031729;28;20029;-88
2021/10/19 00:18:20;;;;;;;5.95;4.88;;;14.00;99.90;;;;;;5030670;28;20095;-88
2021/10/19 00:20:46;;;;;;;6.20;4.93;;;14.00;99.90;;;;;;5030868;28;20027;-86
2021/10/19 00:23:11;;;;;;;7.90;5.10;;;13.90;99.90;;;;;;5018746;28;20786;-87
2021/10/19 00:25:37;;;;;;;6.35;5.20;;;13.90;99.90;;;;;;5030954;28;20080;-88
2021/10/19 00:28:04;;;;;;;7.75;4.97;;;14.00;99.90;;;;;;5030527;28;20117;-87
2021/10/19 00:30:30;;;;;;;9.25;5.40;;;13.90;99.90;;;;;;5032098;28;20571;-87
2021/10/19 00:32:56;;;;;;;7.72;5.03;;;13.90;99.90;;;;;;5030114;28;20075;-87
2021/10/19 00:35:22;;;;;;;5.07;4.57;;;13.90;99.90;;;;;;5031793;28;20017;-87
2021/10/19 00:37:48;;;;;;;11.38;5.05;;;13.90;99.90;;;;;;5030210;28;20033;-87
2021/10/19 00:40:14;;;;;;;6.18;4.60;;;13.90;99.90;;;;;;5024726;28;20034;-87
2021/10/19 00:42:40;;;;;;;6.38;4.93;;;13.90;99.90;;;;;;5024870;28;20022;-86
2021/10/19 00:45:07;;;;;;;6.90;5.22;;;13.90;99.90;;;;;;5029051;28;20116;-87
2021/10/19 00:47:34;;;;;;;5.18;4.35;;;13.90;99.90;;;;;;5030474;28;20030;-87
2021/10/19 00:50:01;;;;;;;7.88;5.03;;;13.90;99.90;;;;;;5028849;28;20124;-87
2021/10/19 00:52:27;;;;;;;5.00;4.03;;;13.90;99.90;;;;;;5023214;28;20029;-88
2021/10/19 00:54:54;;;;;;;5.60;4.22;;;13.90;99.90;;;;;;5010789;28;20037;-87
2021/10/19 00:57:20;;;;;;;6.63;4.95;;;13.90;99.90;;;;;;5010548;28;20112;-87
2021/10/19 00:59:47;;;;;;;6.85;4.65;;;13.90;99.90;;;;;;5010742;28;20440;-87
2021/10/19 01:02:14;;;;;;;5.13;4.35;;;13.90;99.90;;;;;;5010696;28;20096;-87
2021/10/19 01:04:43;;;;;;;8.75;5.40;;;13.90;99.90;;;;;;5011796;28;20034;-87
2021/10/19 01:07:11;;;;;;;5.70;4.95;;;13.90;99.90;;;;;;5011802;28;20018;-88
2021/10/19 01:09:37;;;;;;;6.82;4.78;;;13.90;99.90;;;;;;5010641;28;20071;-87
2021/10/19 01:12:05;;;;;;;5.68;4.65;;;14.00;99.90;;;;;;5010698;28;20025;-87
2021/10/19 01:14:30;;;;;;;4.78;3.97;;;14.10;99.90;;;;;;5010617;28;20100;-86
2021/10/19 01:16:57;;;;;;;6.13;4.50;;;14.10;99.90;;;;;;5011685;28;20062;-87
2021/10/19 01:19:24;;;;;;;4.05;3.40;;;14.20;99.90;;;;;;5011611;28;20108;-86
2021/10/19 01:21:57;;;;;;;4.35;3.55;;;14.20;99.90;;;;;;5008475;28;20056;-86
2021/10/19 01:24:23;;;;;;;4.38;3.30;;;14.20;99.90;;;;;;5010601;28;20034;-86
2021/10/19 01:26:49;;;;;;;4.57;3.58;;;14.20;99.90;;;;;;5010216;28;20029;-86
2021/10/19 01:29:15;;;;;;;4.22;3.45;;;14.20;99.90;;;;;;5011614;28;20388;-87
2021/10/19 01:31:50;;;;;;;6.40;5.18;;;14.20;99.90;;;;;;5010229;28;20061;-88
2021/10/19 01:34:18;;;;;;;6.75;5.20;;;14.20;99.90;;;;;;5010693;28;20056;-88
2021/10/19 01:36:45;;;;;;;8.40;5.50;;;14.20;99.90;;;;;;5012183;28;20444;-86
2021/10/19 01:39:11;;;;;;;6.85;4.55;;;14.20;99.90;;;;;;5011319;28;20522;-88
2021/10/19 01:41:38;;;;;;;7.30;5.13;;;14.20;99.90;;;;;;5012343;28;20030;-88
2021/10/19 01:44:04;;;;;;;7.07;4.50;;;14.30;99.90;;;;;;5011024;28;20030;-87
2021/10/19 01:46:30;;;;;;;5.72;4.53;;;14.30;99.90;;;;;;5012301;28;20041;-87
2021/10/19 01:48:59;;;;;;;5.45;4.70;;;14.30;99.90;;;;;;5011109;28;20026;-88
2021/10/19 01:51:25;;;;;;;5.03;4.00;;;14.30;99.90;;;;;;5011124;28;20026;-88
2021/10/19 01:53:51;;;;;;;4.97;4.47;;;14.30;99.90;;;;;;5014581;28;20077;-88
2021/10/19 01:56:17;;;;;;;7.50;4.28;;;14.30;99.90;;;;;;5021895;28;20466;-88
2021/10/19 01:58:43;;;;;;;4.13;3.70;;;14.30;99.90;;;;;;5020343;28;20117;-88
2021/10/19 02:01:08;;;;;;;6.97;3.80;;;14.20;99.90;;;;;;5020552;28;20491;-89
2021/10/19 02:03:34;;;;;;;5.07;3.70;;;14.20;99.90;;;;;;5021741;28;20028;-89
2021/10/19 02:06:00;;;;;;;5.53;4.38;;;14.20;99.90;;;;;;5023135;28;20018;-88
2021/10/19 02:08:25;;;;;;;5.57;4.20;;;14.20;99.90;;;;;;5024308;28;20029;-87
2021/10/19 02:10:51;;;;;;;4.30;3.63;;;14.10;99.90;;;;;;5021385;28;20029;-86
2021/10/19 02:13:17;;;;;;;5.25;3.90;;;14.10;99.90;;;;;;5024840;28;20471;-89
2021/10/19 02:15:42;;;;;;;8.18;3.60;;;14.10;99.90;;;;;;5024589;28;20080;-88
2021/10/19 02:18:09;;;;;;;4.88;3.83;;;14.10;99.90;;;;;;5026196;28;20025;-88
2021/10/19 02:20:36;;;;;;;6.70;4.90;;;14.10;99.90;;;;;;5025126;28;20071;-89
2021/10/19 02:23:02;;;;;;;4.55;3.75;;;14.00;99.90;;;;;;5024738;28;20028;-87
2021/10/19 02:25:28;;;;;;;6.38;3.78;;;14.10;99.90;;;;;;5024195;28;20026;-88
2021/10/19 02:27:55;;;;;;;5.10;3.22;;;14.10;99.90;;;;;;5022683;28;20399;-88
2021/10/19 02:30:22;;;;;;;5.22;4.38;;;14.10;99.90;;;;;;5025464;28;20049;-88
2021/10/19 02:32:48;;;;;;;6.75;3.58;;;14.10;99.90;;;;;;5023943;28;20026;-88
2021/10/19 02:35:17;;;;;;;3.85;3.45;;;14.00;99.90;;;;;;5022588;28;20144;-89
2021/10/19 02:37:43;;;;;;;6.10;4.55;;;14.00;99.90;;;;;;5024763;28;20033;-87
2021/10/19 02:40:10;;;;;;;4.88;4.05;;;14.00;99.90;;;;;;5025397;28;20562;-88
2021/10/19 02:42:36;;;;;;;4.85;4.03;;;14.00;99.90;;;;;;5031486;28;20021;-87
2021/10/19 02:45:06;;;;;;;6.90;4.00;;;14.00;99.90;;;;;;5033889;28;20036;-87
2021/10/19 02:47:32;;;;;;;3.83;3.47;;;14.00;99.90;;;;;;5034855;28;20029;-87
2021/10/19 02:49:58;;;;;;;7.38;3.80;;;14.00;99.90;;;;;;5033975;28;20474;-87
2021/10/19 02:52:23;;;;;;;3.35;3.05;;;14.00;99.90;;;;;;5035016;28;20472;-88
2021/10/19 02:54:51;;;;;;;5.88;3.90;;;14.00;99.90;;;;;;5033663;28;20029;-88
2021/10/19 02:57:20;;;;;;;5.60;4.68;;;14.00;99.90;;;;;;5033848;28;20093;-88
2021/10/19 02:59:45;;;;;;;5.63;4.28;;;14.00;99.90;;;;;;5033548;28;20037;-87
2021/10/19 03:02:11;;;;;;;6.53;5.22;;;14.00;99.90;;;;;;5033470;28;20145;-88
2021/10/19 03:04:37;;;;;;;7.68;6.13;;;14.00;99.90;;;;;;5034788;28;20056;-87
2021/10/19 03:07:03;;;;;;;7.03;5.07;;;14.00;99.90;;;;;;5034605;28;20021;-87
2021/10/19 03:09:28;;;;;;;5.45;4.90;;;14.10;99.90;;;;;;5034377;28;20025;-88
2021/10/19 03:11:54;;;;;;;4.60;3.80;;;14.00;99.90;;;;;;5034541;28;20037;-87
2021/10/19 03:14:19;;;;;;;4.03;3.25;;;14.00;99.90;;;;;;5033188;28;20032;-87
2021/10/19 03:16:45;;;;;;;4.70;3.88;;;14.00;99.90;;;;;;5032852;28;20104;-87
2021/10/19 03:19:11;;;;;;;7.53;5.68;;;14.00;99.90;;;;;;5033154;28;20498;-88
2021/10/19 03:21:37;;;;;;;4.63;4.03;;;14.00;99.90;;;;;;5032961;28;20106;-87
2021/10/19 03:24:04;;;;;;;5.88;4.47;;;14.00;99.90;;;;;;5034123;28;20496;-87
2021/10/19 03:26:29;;;;;;;5.82;5.18;;;14.00;99.90;;;;;;5033096;28;20116;-87
2021/10/19 03:28:55;;;;;;;6.97;4.30;;;14.00;99.90;;;;;;5033007;28;20160;-87
2021/10/19 03:31:21;;;;;;;8.25;5.05;;;14.00;99.90;;;;;;5032737;28;20113;-87
2021/10/19 03:33:46;;;;;;;6.78;5.57;;;14.00;99.90;;;;;;5033907;28;20029;-88
2021/10/19 03:36:12;;;;;;;9.60;6.35;;;14.00;99.90;;;;;;5033983;28;20025;-85
2021/10/19 03:38:39;;;;;;;8.10;5.85;;;14.00;99.90;;;;;;5032754;28;20116;-86
2021/10/19 03:41:06;;;;;;;6.47;4.90;;;14.00;99.90;;;;;;5032551;28;20028;-87
2021/10/19 03:43:32;;;;;;;7.78;5.40;;;14.00;99.90;;;;;;5032700;28;20116;-88
2021/10/19 03:45:58;;;;;;;6.07;4.70;;;14.00;99.90;;;;;;5032464;28;20672;-88
2021/10/19 03:48:23;;;;;;;5.35;4.68;;;14.00;99.90;;;;;;5033726;28;20037;-88
2021/10/19 03:50:49;;;;;;;7.30;6.20;;;14.00;99.90;;;;;;5032622;28;20390;-88
2021/10/19 03:53:15;;;;;;;9.27;6.57;;;14.00;99.90;;;;;;5033748;28;20028;-88
2021/10/19 03:55:43;;;;;;;7.95;6.57;;;14.00;99.90;;;;;;5032752;28;20033;-89
2021/10/19 03:58:09;;;;;;;9.07;7.25;;;14.00;99.90;;;;;;5032426;28;20491;-88
2021/10/19 04:00:35;;;;;;;9.98;7.70;;;14.00;99.90;;;;;;5033706;28;20021;-88
2021/10/19 04:03:01;;;;;;;10.90;8.15;;;14.00;99.90;;;;;;5032342;28;20545;-88
2021/10/19 04:05:26;;;;;;;9.63;7.55;;;14.10;99.90;;;;;;5032603;28;20541;-88
2021/10/19 04:07:52;;;;;;;11.35;7.05;;;14.10;99.90;;;;;;5032160;28;20076;-86
2021/10/19 04:10:17;;;;;;;9.45;6.75;;;14.10;99.90;;;;;;5033415;28;20021;-88
2021/10/19 04:12:43;;;;;;;11.70;8.52;;;14.10;99.90;;;;;;5033687;28;20513;-88
2021/10/19 04:15:09;;;;;;;10.20;7.78;;;14.10;99.90;;;;;;5033096;28;20063;-88
2021/10/19 04:17:35;;;;;;;14.38;8.82;;;14.10;99.90;;;;;;5032078;28;20033;-88
2021/10/19 04:20:01;;;;;;;8.68;6.70;;;14.10;99.90;;;;;;5048635;28;20045;-88
2021/10/19 04:22:26;;;;;;;7.32;5.97;;;14.10;99.90;;;;;;5031968;28;20136;-88
2021/10/19 04:24:54;;;;;;;10.25;7.15;;;14.10;99.90;;;;;;5031889;28;20041;-88
2021/10/19 04:27:20;;;;;;;9.10;6.45;;;14.10;99.90;;;;;;5031265;28;20029;-88
2021/10/19 04:29:46;;;;;;;11.30;7.57;;;14.10;99.90;;;;;;5031662;28;20029;-88
2021/10/19 04:32:11;;;;;;;7.82;6.72;;;14.10;99.90;;;;;;5032115;28;20148;-88
2021/10/19 04:34:37;;;;;;;8.80;6.32;;;14.10;99.90;;;;;;5032043;28;20026;-88
2021/10/19 04:37:04;;;;;;;7.40;5.55;;;14.00;99.90;;;;;;5032930;28;20025;-88
2021/10/19 04:39:29;;;;;;;8.48;6.15;;;14.00;99.90;;;;;;5032815;28;20479;-88
2021/10/19 04:41:55;;;;;;;8.20;6.30;;;14.00;99.90;;;;;;5031908;28;20075;-88
2021/10/19 04:44:21;;;;;;;8.90;6.80;;;14.00;99.90;;;;;;5031641;28;20033;-88
2021/10/19 04:46:47;;;;;;;12.20;8.48;;;14.00;99.90;;;;;;5032648;28;20029;-88
2021/10/19 04:49:13;;;;;;;14.30;8.30;;;14.00;99.90;;;;;;5031661;28;20061;-88
2021/10/19 04:51:39;;;;;;;9.30;6.85;;;14.00;99.90;;;;;;5032686;28;20485;-88
2021/10/19 04:54:04;;;;;;;9.00;6.70;;;14.00;99.90;;;;;;5031322;28;20033;-88
2021/10/19 04:56:31;;;;;;;8.05;6.75;;;14.00;99.90;;;;;;5032522;28;20034;-88
2021/10/19 04:58:56;;;;;;;9.93;7.72;;;14.00;99.90;;;;;;5031205;28;20041;-88
2021/10/19 05:01:22;;;;;;;8.88;6.70;;;14.00;99.90;;;;;;5031464;28;20188;-88
2021/10/19 05:03:48;;;;;;;12.75;9.13;;;13.90;99.90;;;;;;5032556;28;20025;-88
2021/10/19 05:06:14;;;;;;;9.95;7.68;;;14.00;99.90;;;;;;5031716;28;20021;-87
2021/10/19 05:08:40;;;;;;;13.85;9.57;;;13.90;99.90;;;;;;5031476;28;20394;-87
2021/10/19 05:11:05;;;;;;;13.48;7.93;;;13.90;99.90;;;;;;5031429;28;20109;-88
2021/10/19 05:13:31;;;;;;;10.73;7.35;;;14.00;99.90;;;;;;5031273;28;20486;-88
2021/10/19 05:15:57;;;;;;;12.82;7.97;;;14.00;99.90;;;;;;5031215;28;20041;-87
2021/10/19 05:18:22;;;;;;;11.38;8.20;;;14.00;99.90;;;;;;5031148;28;20136;-88
2021/10/19 05:20:48;;;;;;;11.30;7.53;;;14.00;99.90;;;;;;5047656;28;20044;-88
2021/10/19 05:23:13;;;;;;;11.93;8.57;;;13.90;99.90;;;;;;5031024;28;20029;-88
2021/10/19 05:25:39;;;;;;;10.23;7.53;;;14.00;99.90;;;;;;5047843;28;20029;-89
2021/10/19 05:28:05;;;;;;;8.15;6.63;;;14.00;99.90;;;;;;5031184;28;20426;-88
2021/10/19 05:30:31;;;;;;;10.18;6.90;;;14.00;99.90;;;;;;5032017;28;20506;-88
2021/10/19 05:32:57;;;;;;;12.52;8.90;;;14.00;99.90;;;;;;5030902;28;20030;-87
2021/10/19 05:35:22;;;;;;;11.02;8.00;;;14.00;99.90;;;;;;5030881;28;20087;-87
2021/10/19 05:37:48;;;;;;;9.68;7.65;;;14.00;99.90;;;;;;5030768;28;20032;-88
2021/10/19 05:40:14;;;;;;;14.40;9.40;;;14.00;99.90;;;;;;5034125;28;20053;-88
2021/10/19 05:42:39;;;;;;;9.25;7.63;;;14.00;99.90;;;;;;5034967;28;20072;-88
2021/10/19 05:45:05;;;;;;;12.35;7.32;;;14.00;99.90;;;;;;5036072;28;20458;-88
2021/10/19 05:47:32;;;;;;;9.63;7.75;;;14.00;99.90;;;;;;5034872;28;20033;-88
2021/10/19 05:49:58;;;;;;;9.18;7.40;;;14.00;99.90;;;;;;5036155;28;20022;-88
2021/10/19 05:52:23;;;;;;;8.27;6.10;;;14.10;99.90;;;;;;5034935;28;20037;-86
2021/10/19 05:54:49;;;;;;;7.70;6.03;;;14.10;99.90;;;;;;5051448;28;20072;-89
2021/10/19 05:57:14;;;;;;;8.50;6.47;;;14.00;99.90;;;;;;5035735;28;20021;-86
2021/10/19 05:59:40;;;;;;;8.85;6.55;;;14.00;99.90;;;;;;5035795;28;20124;-88
2021/10/19 06:02:06;;;;;;;8.35;7.15;;;14.00;99.90;;;;;;5034983;28;20508;-86
2021/10/19 06:04:31;;;;;;;11.82;8.77;;;14.00;99.90;;;;;;5034935;28;20044;-86
2021/10/19 06:07:01;;;;;;;8.95;7.40;;;14.10;99.90;;;;;;5030619;28;20025;-89
2021/10/19 06:09:29;;;;;;;7.60;6.18;;;14.10;99.90;;;;;;5027002;28;20032;-88
2021/10/19 06:11:55;;;;;;;8.20;6.78;;;14.00;99.90;;;;;;5024598;28;20040;-88
2021/10/19 06:14:23;;;;;;;9.35;6.93;;;14.10;99.90;;;;;;5022827;28;20105;-89
2021/10/19 06:16:49;;;;;;;10.30;7.97;;;14.10;99.90;;;;;;5024830;28;20045;-89
2021/10/19 06:19:15;;;;;;;10.55;7.65;;;14.10;99.90;;;;;;5025950;28;20033;-89
2021/10/19 06:21:41;;;;;;;10.88;6.93;;;14.10;99.90;;;;;;5024180;28;20112;-90
2021/10/19 06:24:07;;;;;;;11.15;8.63;;;14.10;99.90;;;;;;5026893;28;20021;-90
2021/10/19 06:26:35;;;;;;;18.75;9.63;;;14.10;99.90;;;;;;5023708;28;20131;-89
2021/10/19 06:29:06;;;;;;;12.25;8.70;;;14.10;99.90;;;;;;5026432;28;20030;-90
2021/10/19 06:31:32;;;;;;;8.15;6.82;;;14.10;99.90;;;;;;5025753;28;20021;-90
2021/10/19 06:33:58;;;;;;;12.48;8.43;;;14.10;99.90;;;;;;5025368;28;20041;-90
2021/10/19 06:36:24;;;;;;;8.88;6.97;;;14.10;99.90;;;;;;5023816;28;20017;-91
2021/10/19 06:38:50;;;;;;;8.38;6.60;;;14.10;99.90;;;;;;5025494;28;20033;-89
2021/10/19 06:41:16;;;;;;;7.85;6.25;;;14.10;99.90;;;;;;5023946;28;20110;-92
2021/10/19 06:43:42;;;;;;;9.45;6.13;;;14.10;99.90;;;;;;5048074;28;20039;-91
2021/10/19 06:46:07;;;;;;;13.00;9.25;;;14.10;99.90;;;;;;5026106;28;20364;-91
2021/10/19 06:48:33;;;;;;;10.30;7.63;;;14.10;99.90;;;;;;5024581;28;20057;-90
2021/10/19 06:50:59;;;;;;;10.80;6.18;;;14.10;99.90;;;;;;5025177;28;20116;-90
2021/10/19 06:53:24;;;;;;;16.08;9.07;;;14.10;99.90;;;;;;5025589;28;20026;-90
2021/10/19 06:55:50;;;;;;;13.45;7.85;;;14.10;99.90;;;;;;5022894;28;20053;-89
2021/10/19 06:58:16;;;;;;;11.48;8.05;;;14.10;99.90;;;;;;5025763;28;20033;-91
2021/10/19 07:00:42;;;;;;;9.38;6.22;;;14.10;99.90;;;;;;5023115;28;20068;-89
2021/10/19 07:03:08;;;;;;;11.40;5.95;;;14.20;99.90;;;;;;5033140;28;20018;-91
2021/10/19 07:05:33;;;;;;;9.68;5.53;;;14.20;99.90;;;;;;5021688;28;20055;-91
2021/10/19 07:08:00;;;;;;;4.43;3.83;;;14.20;99.90;;;;;;5022445;28;20029;-91
2021/10/19 07:10:25;;;;;;;4.72;3.75;;;14.20;99.90;;;;;;5026550;28;20034;-91
2021/10/19 07:12:51;;;;;;;5.78;3.95;;;14.20;99.90;;;;;;5026447;28;20075;-91
2021/10/19 07:15:17;;;;;;;5.05;3.80;;;14.20;99.90;;;;;;5022532;28;20032;-90
2021/10/19 07:17:43;;;;;;;8.10;4.50;;;14.30;99.90;;;;;;5025051;28;20088;-90
2021/10/19 07:20:10;;;;;;;6.80;3.70;;;14.30;99.90;;;;;;5022574;28;20487;-90
2021/10/19 07:22:37;;;;;;;7.57;4.47;;;14.30;99.90;;;;;;5023861;28;20099;-90
2021/10/19 07:25:05;;;;;;;7.05;4.15;;;14.30;99.90;;;;;;5023700;28;20491;-89
2021/10/19 07:27:31;;;;;;;5.15;3.33;;;14.30;99.90;;;;;;5021918;28;20110;-88
2021/10/19 07:29:57;;;;;;;4.40;2.80;;;14.30;99.90;;;;;;5024350;28;20021;-89
2021/10/19 07:32:24;;;;;;;3.50;2.00;;;14.30;99.90;;;;;;5027742;28;20022;-89
2021/10/19 07:34:50;;;;;;;4.68;1.95;;;14.30;99.90;;;;;;5024282;28;20486;-88
2021/10/19 07:37:16;;;;;;;2.65;1.55;;;14.40;99.90;;;;;;5020694;28;20105;-87
2021/10/19 07:39:42;;;;;;;2.15;1.60;;;14.40;99.90;;;;;;5022862;28;20037;-89
2021/10/19 07:42:08;;;;;;;1.70;1.40;;;14.40;99.90;;;;;;5022328;28;20013;-89
2021/10/19 07:44:34;;;;;;;2.95;1.90;;;14.50;99.90;;;;;;5024754;28;20030;-88
2021/10/19 07:47:00;;;;;;;1.70;1.45;;;14.50;99.90;;;;;;5021691;28;20128;-88
2021/10/19 07:49:25;;;;;;;2.72;1.63;;;14.60;99.90;;;;;;5024779;28;20040;-89
2021/10/19 07:51:51;;;;;;;2.65;1.70;;;14.60;99.90;;;;;;5027456;28;20060;-89
2021/10/19 07:54:18;;;;;;;5.43;2.15;;;14.70;99.90;;;;;;5021370;28;20021;-89
2021/10/19 07:56:43;;;;;;;4.78;2.42;;;14.70;99.90;;;;;;5023379;28;20020;-88
2021/10/19 07:59:09;;;;;;;3.08;2.08;;;14.70;99.90;;;;;;5022007;28;20029;-88
2021/10/19 08:01:36;;;;;;;5.20;2.55;;;14.80;99.90;;;;;;5027266;28;20037;-90
2021/10/19 08:04:02;;;;;;;3.88;2.70;;;14.80;99.90;;;;;;5023206;28;20026;-89
2021/10/19 08:06:29;;;;;;;4.60;3.05;;;14.80;99.90;;;;;;5023743;28;20093;-87
2021/10/19 08:08:55;;;;;;;7.22;3.53;;;14.80;99.90;;;;;;5024983;28;20072;-88
2021/10/19 08:11:20;;;;;;;5.38;3.42;;;14.90;99.90;;;;;;5022815;28;20025;-88
2021/10/19 08:13:46;;;;;;;6.03;3.97;;;14.90;99.90;;;;;;5022981;28;20034;-89
2021/10/19 08:16:15;;;;;;;8.52;4.20;;;15.00;99.90;;;;;;5020364;28;20407;-88
2021/10/19 08:18:40;;;;;;;9.48;4.80;;;15.00;99.90;;;;;;5021853;28;20045;-90
2021/10/19 08:21:06;;;;;;;7.03;5.03;;;15.10;99.90;;;;;;5027329;28;20017;-89
2021/10/19 08:23:33;;;;;;;7.28;5.07;;;15.10;99.90;;;;;;5024222;28;20077;-90
2021/10/19 08:25:59;;;;;;;6.13;4.20;;;15.20;99.90;;;;;;5021330;28;20072;-91
2021/10/19 08:28:32;;;;;;;6.75;4.47;;;15.20;99.90;;;;;;5023459;28;20028;-90
2021/10/19 08:30:58;;;;;;;4.50;2.88;;;15.30;99.90;;;;;;5022130;28;20093;-90
2021/10/19 08:33:24;;;;;;;7.82;3.47;;;15.40;99.90;;;;;;5024030;28;20530;-91
2021/10/19 08:35:55;;;;;;;4.03;2.70;;;15.50;99.90;;;;;;5022289;28;20018;-90
2021/10/19 08:38:24;;;;;;;4.35;2.90;;;15.60;99.90;;;;;;5019913;28;20033;-89
2021/10/19 08:40:50;;;;;;;4.65;3.13;;;15.60;99.90;;;;;;5021675;28;20025;-89
2021/10/19 08:43:19;;;;;;;3.97;3.40;;;15.60;99.90;;;;;;5048023;28;20553;-88
2021/10/19 08:45:46;;;;;;;4.28;3.30;;;15.80;99.90;;;;;;5025190;28;20028;-88
2021/10/19 08:48:12;;;;;;;4.60;3.17;;;15.80;99.90;;;;;;5021962;28;20033;-88
2021/10/19 08:50:58;;;;;;;3.17;2.40;;;15.90;99.90;;;;;;5111697;27;21025;-89
2021/10/19 08:53:24;;;;;;;4.20;2.55;;;16.00;99.90;;;;;;5077296;28;20432;-88
2021/10/19 08:55:53;;;;;;;2.63;2.00;;;16.00;99.90;;;;;;5076870;28;20056;-90
2021/10/19 08:58:19;;;;;;;3.22;2.08;;;16.10;99.90;;;;;;5067953;28;20055;-89
2021/10/19 09:00:45;;;;;;;2.13;1.92;;;16.20;99.90;;;;;;5071816;28;20052;-89
2021/10/19 09:03:11;;;;;;;2.13;1.75;;;16.30;99.90;;;;;;5068663;28;20025;-89
2021/10/19 09:05:37;;;;;;;2.33;1.73;;;16.20;99.90;;;;;;5071689;28;20451;-87
2021/10/19 09:08:06;;;;;;;1.77;1.05;;;16.30;99.90;;;;;;5079102;28;20143;-89
2021/10/19 09:10:36;;;;;;;1.52;0.93;;;16.40;99.90;;;;;;5074397;28;20044;-88
2021/10/19 09:13:07;;;;;;;1.90;1.10;;;16.40;99.90;;;;;;5066714;28;20023;-89
2021/10/19 09:15:35;;;;;;;1.30;1.00;;;16.50;99.90;;;;;;5066394;28;20363;-88
2021/10/19 09:18:04;;;;;;;2.85;0.77;;;16.50;99.90;;;;;;5075664;28;20029;-88
2021/10/19 09:20:35;;;;;;;1.20;1.00;;;16.60;99.90;;;;;;5067090;28;20021;-89
2021/10/19 09:23:02;;;;;;;0.88;0.75;;;16.70;99.90;;;;;;5066206;28;20031;-89
2021/10/19 09:25:36;;;;;;;2.42;0.82;;;16.70;99.90;;;;;;5069078;28;20028;-88
2021/10/19 09:28:04;;;;;;;0.95;0.80;;;16.80;99.90;;;;;;5069080;28;20028;-88
2021/10/19 09:30:37;;;;;;;2.10;1.00;;;16.80;99.90;;;;;;5069205;28;20026;-90
2021/10/19 09:33:06;;;;;;;0.90;0.73;;;16.80;99.90;;;;;;5067354;28;20044;-89
2021/10/19 09:35:38;;;;;;;1.92;0.90;;;16.90;99.90;;;;;;5065412;28;20028;-90
2021/10/19 09:38:11;;;;;;;2.00;1.00;;;16.90;99.90;;;;;;5070664;28;20520;-90
2021/10/19 09:40:47;;;;;;;1.20;1.10;;;16.90;99.90;;;;;;5073301;28;20025;-89
2021/10/19 09:43:33;;;;;;;1.20;1.10;;;16.90;99.90;;;;;;5071262;28;20021;-90
2021/10/19 09:46:01;;;;;;;1.13;1.02;;;16.90;99.90;;;;;;5088314;28;20063;-91
2021/10/19 09:48:31;;;;;;;0.95;0.90;;;17.00;99.90;;;;;;5064970;28;20024;-92
2021/10/19 09:50:59;;;;;;;2.40;1.00;;;17.00;99.90;;;;;;5073019;28;20111;-90
2021/10/19 09:53:26;;;;;;;1.23;1.00;;;17.00;99.90;;;;;;5089878;28;20783;-90
2021/10/19 09:55:54;;;;;;;2.88;0.80;;;17.00;99.90;;;;;;5076566;28;20025;-90
2021/10/19 09:58:24;;;;;;;1.77;0.90;;;17.00;99.90;;;;;;5067219;28;20111;-89
2021/10/19 10:00:50;;;;;;;0.77;0.50;;;17.10;99.90;;;;;;5061799;28;20017;-89
2021/10/19 10:03:16;;;;;;;0.65;0.65;;;17.10;99.90;;;;;;5056732;28;20142;-91
2021/10/19 10:05:42;;;;;;;1.10;0.70;;;17.10;99.90;;;;;;5054578;28;20096;-90
2021/10/19 10:08:17;;;;;;;1.10;0.70;;;17.10;99.90;;;;;;5051533;28;20028;-90
2021/10/19 10:10:43;;;;;;;1.27;0.80;;;17.10;99.90;;;;;;5052509;28;20068;-88
2021/10/19 10:13:16;;;;;;;2.08;0.60;;;17.10;99.90;;;;;;5052765;28;20025;-88
2021/10/19 10:15:44;;;;;;;1.58;0.57;;;17.10;99.90;;;;;;5052337;28;20025;-89
2021/10/19 10:18:12;;;;;;;0.52;0.40;;;17.10;99.90;;;;;;5068317;28;20074;-89
2021/10/19 10:20:48;;;;;;;0.63;0.63;;;17.20;99.90;;;;;;5051649;28;20017;-88
2021/10/19 10:23:19;;;;;;;2.38;0.60;;;17.20;99.90;;;;;;5052410;28;20040;-89
2021/10/19 10:25:48;;;;;;;1.17;0.57;;;17.20;99.90;;;;;;5051713;28;20029;-88
2021/10/19 10:28:37;;;;;;;0.82;0.50;;;17.30;99.90;;;;;;5047423;28;20471;-88
2021/10/19 10:31:17;;;;;;;1.00;0.50;;;17.30;99.90;;;;;;5048502;28;20132;-88
2021/10/19 10:33:45;;;;;;;0.95;0.60;;;17.30;99.90;;;;;;5053683;28;20493;-88
2021/10/19 10:36:12;;;;;;;0.95;0.47;;;17.40;99.90;;;;;;5054725;28;20024;-89
2021/10/19 10:38:53;;;;;;;1.05;0.40;;;17.40;99.90;;;;;;5056780;28;20104;-89
2021/10/19 10:41:18;;;;;;;0.60;0.50;;;17.40;99.90;;;;;;5052848;28;20116;-88
2021/10/19 10:44:11;;;;;;;4.10;0.75;;;17.40;99.90;;;;;;5053893;28;20118;-88
2021/10/19 10:46:38;;;;;;;0.80;0.45;;;17.40;99.90;;;;;;5052491;28;20421;-89
2021/10/19 10:49:07;;;;;;;1.02;0.77;;;17.40;99.90;;;;;;5051403;28;20053;-90
2021/10/19 10:51:36;;;;;;;0.50;0.50;;;17.40;99.90;;;;;;5058128;28;20029;-89
2021/10/19 10:54:03;;;;;;;0.70;0.52;;;17.50;99.90;;;;;;5054845;28;20017;-88
2021/10/19 10:56:39;;;;;;;0.60;0.50;;;17.50;99.90;;;;;;5055509;28;20660;-87
2021/10/19 10:59:05;;;;;;;0.40;0.40;;;17.50;99.90;;;;;;5065362;28;20098;-89
2021/10/19 11:01:33;;;;;;;2.88;0.60;;;17.50;99.90;;;;;;5055403;28;20475;-89
2021/10/19 11:04:09;;;;;;;0.43;0.40;;;17.60;99.90;;;;;;5059080;28;20017;-88
2021/10/19 11:06:36;;;;;;;0.80;0.60;;;17.60;99.90;;;;;;5077966;28;20025;-88
2021/10/19 11:09:13;;;;;;;0.77;0.57;;;17.60;99.90;;;;;;5049386;28;20459;-89
2021/10/19 11:11:41;;;;;;;0.80;0.60;;;17.60;99.90;;;;;;5061711;28;20025;-88
2021/10/19 11:14:12;;;;;;;1.00;0.50;;;17.60;99.90;;;;;;5070883;28;20025;-89
2021/10/19 11:16:51;;;;;;;0.55;0.45;;;17.70;99.90;;;;;;5055135;28;20028;-88
2021/10/19 11:19:25;;;;;;;1.45;0.73;;;17.60;99.90;;;;;;5053845;28;20540;-88
2021/10/19 11:21:53;;;;;;;1.08;0.60;;;17.60;99.90;;;;;;5061534;28;20449;-89
2021/10/19 11:24:20;;;;;;;1.08;0.57;;;17.60;99.90;;;;;;5055958;28;20460;-88
2021/10/19 11:26:46;;;;;;;1.42;0.52;;;17.60;99.90;;;;;;5059850;28;20021;-88
2021/10/19 11:29:12;;;;;;;0.60;0.60;;;17.60;99.90;;;;;;5051935;28;20025;-89
2021/10/19 11:31:38;;;;;;;0.80;0.68;;;17.60;99.90;;;;;;5051829;28;20029;-88
2021/10/19 11:34:06;;;;;;;1.85;0.73;;;17.60;99.90;;;;;;5051512;28;20059;-89
2021/10/19 11:36:32;;;;;;;2.22;0.60;;;17.60;99.90;;;;;;5050514;28;20029;-90
2021/10/19 11:39:00;;;;;;;1.45;1.00;;;17.50;99.90;;;;;;5051005;28;20108;-88
2021/10/19 11:41:28;;;;;;;1.15;1.00;;;17.50;99.90;;;;;;5051134;28;20459;-88
2021/10/19 11:43:57;;;;;;;0.82;0.60;;;17.50;99.90;;;;;;5051008;28;20411;-88
2021/10/19 11:46:29;;;;;;;0.82;0.70;;;17.50;99.90;;;;;;5051426;28;20055;-88
2021/10/19 11:49:02;;;;;;;0.77;0.60;;;17.50;99.90;;;;;;5051500;28;20048;-89
2021/10/19 11:51:29;;;;;;;5.07;0.90;;;17.50;99.90;;;;;;5058830;28;20029;-89
2021/10/19 11:53:56;;;;;;;0.80;0.80;;;17.50;99.90;;;;;;5061719;28;20021;-88
2021/10/19 11:56:22;;;;;;;1.63;0.82;;;17.50;99.90;;;;;;5058882;28;20072;-89
2021/10/19 11:58:55;;;;;;;0.65;0.65;;;17.40;99.90;;;;;;5060401;28;20028;-88
2021/10/19 12:01:22;;;;;;;0.77;0.77;;;17.50;99.90;;;;;;5060897;28;20043;-89
2021/10/19 12:03:58;;;;;;;0.50;0.47;;;17.50;99.90;;;;;;5058752;28;20050;-89
2021/10/19 12:06:26;;;;;;;0.95;0.90;;;17.50;99.90;;;;;;5060534;28;20021;-89
2021/10/19 12:08:52;;;;;;;1.25;0.70;;;17.40;99.90;;;;;;5058969;28;20029;-89
2021/10/19 12:11:25;;;;;;;1.55;0.90;;;17.40;99.90;;;;;;5057850;28;20039;-89
2021/10/19 12:13:56;;;;;;;1.75;0.80;;;17.40;99.90;;;;;;5055897;28;20497;-88
2021/10/19 12:16:28;;;;;;;0.90;0.75;;;17.40;99.90;;;;;;5058996;28;20024;-87
2021/10/19 12:18:58;;;;;;;0.93;0.80;;;17.40;99.90;;;;;;5059373;28;20033;-88
2021/10/19 12:21:26;;;;;;;1.90;0.70;;;17.40;99.90;;;;;;5061289;28;20029;-88
2021/10/19 12:23:54;;;;;;;1.73;0.63;;;17.30;99.90;;;;;;5057586;28;20017;-88
2021/10/19 12:26:21;;;;;;;0.70;0.70;;;17.40;99.90;;;;;;5059486;28;20068;-88
2021/10/19 12:28:51;;;;;;;0.70;0.57;;;17.40;99.90;;;;;;5055923;28;20024;-90
2021/10/19 12:31:18;;;;;;;0.33;0.30;;;17.40;99.90;;;;;;5059989;28;20025;-88
2021/10/19 12:33:51;;;;;;;1.63;0.60;;;17.40;99.90;;;;;;5052704;28;20283;-88
2021/10/19 12:36:18;;;;;;;1.40;0.85;;;17.40;99.90;;;;;;5062383;28;20082;-88
2021/10/19 12:38:45;;;;;;;0.77;0.60;;;17.50;99.90;;;;;;5060733;28;20112;-88
2021/10/19 12:41:17;;;;;;;2.22;0.40;;;17.60;99.90;;;;;;5058427;28;20025;-87
2021/10/19 12:43:47;;;;;;;0.50;0.40;;;17.60;99.90;;;;;;5060725;28;20212;-88
2021/10/19 12:46:14;;;;;;;0.40;0.30;;;17.60;99.90;;;;;;5060870;28;20025;-88